sensor_id;sensor_type;location;lat;lon;timestamp;P1;durP1;ratioP1;P2;durP2;ratioP2
33327;SDS011;19692;52.998;9.116;2023-05-21T00:01:41;8.60;;;6.00;;
33327;SDS011;19692;52.998;9.116;2023-05-21T00:04:07;6.70;;;5.70;;
33327;SDS011;19692;52.998;9.116;2023-05-21T00:06:34;7.47;;;5.43;;
33327;SDS011;19692;52.998;9.116;2023-05-21T00:09:00;7.80;;;6.00;;
33327;SDS011;19692;52.998;9.116;2023-05-21T00:11:28;9.00;;;5.67;;
33327;SDS011;19692;52.998;9.116;2023-05-21T00:13:54;7.50;;;5.90;;
33327;SDS011;19692;52.998;9.116;2023-05-21T00:16:20;7.10;;;6.33;;
33327;SDS011;19692;52.998;9.116;2023-05-21T00:18:46;8.80;;;5.63;;
33327;SDS011;19692;52.998;9.116;2023-05-21T00:21:17;7.83;;;5.70;;
33327;SDS011;19692;52.998;9.116;2023-05-21T00:23:46;10.30;;;5.83;;
33327;SDS011;19692;52.998;9.116;2023-05-21T00:26:18;6.77;;;5.30;;
33327;SDS011;19692;52.998;9.116;2023-05-21T00:28:45;7.80;;;5.23;;
33327;SDS011;19692;52.998;9.116;2023-05-21T00:31:11;6.50;;;5.13;;
33327;SDS011;19692;52.998;9.116;2023-05-21T00:33:37;7.37;;;5.10;;
33327;SDS011;19692;52.998;9.116;2023-05-21T00:36:03;7.23;;;5.00;;
33327;SDS011;19692;52.998;9.116;2023-05-21T00:38:30;7.50;;;4.93;;
33327;SDS011;19692;52.998;9.116;2023-05-21T00:40:58;6.70;;;5.13;;
33327;SDS011;19692;52.998;9.116;2023-05-21T00:43:26;5.97;;;4.90;;
33327;SDS011;19692;52.998;9.116;2023-05-21T00:45:52;6.63;;;4.63;;
33327;SDS011;19692;52.998;9.116;2023-05-21T00:48:20;7.93;;;5.40;;
33327;SDS011;19692;52.998;9.116;2023-05-21T00:50:46;7.33;;;5.00;;
33327;SDS011;19692;52.998;9.116;2023-05-21T00:53:13;8.03;;;5.17;;
33327;SDS011;19692;52.998;9.116;2023-05-21T00:55:42;6.30;;;4.40;;
33327;SDS011;19692;52.998;9.116;2023-05-21T00:58:08;9.43;;;5.77;;
33327;SDS011;19692;52.998;9.116;2023-05-21T01:00:34;7.27;;;4.80;;
33327;SDS011;19692;52.998;9.116;2023-05-21T01:03:04;9.87;;;5.13;;
33327;SDS011;19692;52.998;9.116;2023-05-21T01:05:30;8.73;;;5.07;;
33327;SDS011;19692;52.998;9.116;2023-05-21T01:07:56;8.17;;;6.37;;
33327;SDS011;19692;52.998;9.116;2023-05-21T01:10:23;7.10;;;4.87;;
33327;SDS011;19692;52.998;9.116;2023-05-21T01:12:50;7.40;;;4.70;;
33327;SDS011;19692;52.998;9.116;2023-05-21T01:15:17;9.10;;;4.67;;
33327;SDS011;19692;52.998;9.116;2023-05-21T01:17:43;10.07;;;4.83;;
33327;SDS011;19692;52.998;9.116;2023-05-21T01:20:12;6.87;;;5.10;;
33327;SDS011;19692;52.998;9.116;2023-05-21T01:22:54;9.83;;;4.80;;
33327;SDS011;19692;52.998;9.116;2023-05-21T01:25:21;6.17;;;4.80;;
33327;SDS011;19692;52.998;9.116;2023-05-21T01:27:48;7.23;;;4.53;;
33327;SDS011;19692;52.998;9.116;2023-05-21T01:30:15;8.77;;;4.87;;
33327;SDS011;19692;52.998;9.116;2023-05-21T01:32:54;6.27;;;4.60;;
33327;SDS011;19692;52.998;9.116;2023-05-21T01:35:34;7.70;;;4.70;;
33327;SDS011;19692;52.998;9.116;2023-05-21T01:38:05;7.93;;;5.07;;
33327;SDS011;19692;52.998;9.116;2023-05-21T01:43:22;5.93;;;4.50;;
33327;SDS011;19692;52.998;9.116;2023-05-21T01:45:53;6.80;;;4.67;;
33327;SDS011;19692;52.998;9.116;2023-05-21T01:48:20;8.10;;;5.03;;
33327;SDS011;19692;52.998;9.116;2023-05-21T01:50:48;6.27;;;5.00;;
33327;SDS011;19692;52.998;9.116;2023-05-21T01:53:15;7.00;;;4.70;;
33327;SDS011;19692;52.998;9.116;2023-05-21T01:55:41;8.00;;;4.70;;
33327;SDS011;19692;52.998;9.116;2023-05-21T01:58:07;9.37;;;5.20;;
33327;SDS011;19692;52.998;9.116;2023-05-21T02:00:34;8.63;;;5.00;;
33327;SDS011;19692;52.998;9.116;2023-05-21T02:02:59;6.13;;;4.63;;
33327;SDS011;19692;52.998;9.116;2023-05-21T02:05:25;7.10;;;4.93;;
33327;SDS011;19692;52.998;9.116;2023-05-21T02:07:51;5.67;;;4.50;;
33327;SDS011;19692;52.998;9.116;2023-05-21T02:10:17;6.77;;;5.10;;
33327;SDS011;19692;52.998;9.116;2023-05-21T02:12:43;6.70;;;4.73;;
33327;SDS011;19692;52.998;9.116;2023-05-21T02:15:09;6.90;;;5.00;;
33327;SDS011;19692;52.998;9.116;2023-05-21T02:17:35;8.03;;;4.60;;
33327;SDS011;19692;52.998;9.116;2023-05-21T02:20:02;6.43;;;4.83;;
33327;SDS011;19692;52.998;9.116;2023-05-21T02:22:42;8.07;;;4.57;;
33327;SDS011;19692;52.998;9.116;2023-05-21T02:25:11;5.70;;;5.10;;
33327;SDS011;19692;52.998;9.116;2023-05-21T02:27:39;9.13;;;5.00;;
33327;SDS011;19692;52.998;9.116;2023-05-21T02:30:07;7.03;;;5.90;;
33327;SDS011;19692;52.998;9.116;2023-05-21T02:32:35;8.03;;;4.70;;
33327;SDS011;19692;52.998;9.116;2023-05-21T02:35:02;7.63;;;5.00;;
33327;SDS011;19692;52.998;9.116;2023-05-21T02:37:28;11.27;;;5.40;;
33327;SDS011;19692;52.998;9.116;2023-05-21T02:39:59;5.43;;;4.53;;
33327;SDS011;19692;52.998;9.116;2023-05-21T02:42:30;6.67;;;4.80;;
33327;SDS011;19692;52.998;9.116;2023-05-21T02:44:56;6.30;;;4.53;;
33327;SDS011;19692;52.998;9.116;2023-05-21T02:47:22;7.77;;;4.73;;
33327;SDS011;19692;52.998;9.116;2023-05-21T02:49:49;6.33;;;4.50;;
33327;SDS011;19692;52.998;9.116;2023-05-21T02:52:17;8.00;;;5.30;;
33327;SDS011;19692;52.998;9.116;2023-05-21T02:54:46;6.80;;;4.40;;
33327;SDS011;19692;52.998;9.116;2023-05-21T02:57:12;7.63;;;4.67;;
33327;SDS011;19692;52.998;9.116;2023-05-21T02:59:38;7.57;;;5.00;;
33327;SDS011;19692;52.998;9.116;2023-05-21T03:02:04;9.60;;;4.87;;
33327;SDS011;19692;52.998;9.116;2023-05-21T03:04:29;6.43;;;5.10;;
33327;SDS011;19692;52.998;9.116;2023-05-21T03:06:57;6.20;;;4.53;;
33327;SDS011;19692;52.998;9.116;2023-05-21T03:09:26;5.40;;;4.70;;
33327;SDS011;19692;52.998;9.116;2023-05-21T03:11:51;7.57;;;4.80;;
33327;SDS011;19692;52.998;9.116;2023-05-21T03:14:17;8.00;;;5.20;;
33327;SDS011;19692;52.998;9.116;2023-05-21T03:16:43;8.47;;;4.93;;
33327;SDS011;19692;52.998;9.116;2023-05-21T03:19:09;5.73;;;4.67;;
33327;SDS011;19692;52.998;9.116;2023-05-21T03:21:36;8.17;;;5.27;;
33327;SDS011;19692;52.998;9.116;2023-05-21T03:24:02;6.33;;;4.40;;
33327;SDS011;19692;52.998;9.116;2023-05-21T03:26:30;7.33;;;5.53;;
33327;SDS011;19692;52.998;9.116;2023-05-21T03:28:55;7.30;;;4.53;;
33327;SDS011;19692;52.998;9.116;2023-05-21T03:31:22;8.70;;;4.80;;
33327;SDS011;19692;52.998;9.116;2023-05-21T03:33:48;5.20;;;4.37;;
33327;SDS011;19692;52.998;9.116;2023-05-21T03:36:15;8.00;;;4.83;;
33327;SDS011;19692;52.998;9.116;2023-05-21T03:38:41;8.50;;;4.73;;
33327;SDS011;19692;52.998;9.116;2023-05-21T03:41:07;6.77;;;4.60;;
33327;SDS011;19692;52.998;9.116;2023-05-21T03:43:33;6.93;;;4.80;;
33327;SDS011;19692;52.998;9.116;2023-05-21T03:45:59;7.10;;;5.20;;
33327;SDS011;19692;52.998;9.116;2023-05-21T03:48:24;6.30;;;5.00;;
33327;SDS011;19692;52.998;9.116;2023-05-21T03:50:50;6.37;;;4.67;;
33327;SDS011;19692;52.998;9.116;2023-05-21T03:53:16;5.90;;;4.60;;
33327;SDS011;19692;52.998;9.116;2023-05-21T03:55:42;5.70;;;4.10;;
33327;SDS011;19692;52.998;9.116;2023-05-21T03:58:08;8.47;;;4.67;;
33327;SDS011;19692;52.998;9.116;2023-05-21T04:00:35;7.07;;;4.57;;
33327;SDS011;19692;52.998;9.116;2023-05-21T04:03:05;8.37;;;4.70;;
33327;SDS011;19692;52.998;9.116;2023-05-21T04:05:33;9.03;;;4.27;;
33327;SDS011;19692;52.998;9.116;2023-05-21T04:07:59;7.57;;;4.60;;
33327;SDS011;19692;52.998;9.116;2023-05-21T04:10:25;6.43;;;4.40;;
33327;SDS011;19692;52.998;9.116;2023-05-21T04:12:50;8.17;;;5.00;;
33327;SDS011;19692;52.998;9.116;2023-05-21T04:15:19;7.70;;;4.70;;
33327;SDS011;19692;52.998;9.116;2023-05-21T04:17:45;9.13;;;4.90;;
33327;SDS011;19692;52.998;9.116;2023-05-21T04:20:11;7.40;;;4.37;;
33327;SDS011;19692;52.998;9.116;2023-05-21T04:22:40;8.20;;;4.60;;
33327;SDS011;19692;52.998;9.116;2023-05-21T04:25:09;6.03;;;4.57;;
33327;SDS011;19692;52.998;9.116;2023-05-21T04:27:35;5.40;;;4.47;;
33327;SDS011;19692;52.998;9.116;2023-05-21T04:30:02;6.00;;;4.40;;
33327;SDS011;19692;52.998;9.116;2023-05-21T04:32:29;6.87;;;4.20;;
33327;SDS011;19692;52.998;9.116;2023-05-21T04:34:57;4.90;;;3.63;;
33327;SDS011;19692;52.998;9.116;2023-05-21T04:37:25;10.77;;;5.00;;
33327;SDS011;19692;52.998;9.116;2023-05-21T04:39:56;5.77;;;4.40;;
33327;SDS011;19692;52.998;9.116;2023-05-21T04:42:22;6.57;;;4.90;;
33327;SDS011;19692;52.998;9.116;2023-05-21T04:44:50;8.00;;;4.60;;
33327;SDS011;19692;52.998;9.116;2023-05-21T04:47:16;7.77;;;4.70;;
33327;SDS011;19692;52.998;9.116;2023-05-21T04:49:45;7.97;;;4.30;;
33327;SDS011;19692;52.998;9.116;2023-05-21T04:52:11;6.03;;;4.07;;
33327;SDS011;19692;52.998;9.116;2023-05-21T04:54:37;6.93;;;4.50;;
33327;SDS011;19692;52.998;9.116;2023-05-21T04:57:05;5.33;;;4.07;;
33327;SDS011;19692;52.998;9.116;2023-05-21T04:59:31;5.20;;;4.47;;
33327;SDS011;19692;52.998;9.116;2023-05-21T05:01:57;4.97;;;4.47;;
33327;SDS011;19692;52.998;9.116;2023-05-21T05:04:23;6.67;;;5.20;;
33327;SDS011;19692;52.998;9.116;2023-05-21T05:06:49;9.40;;;4.80;;
33327;SDS011;19692;52.998;9.116;2023-05-21T05:09:16;6.63;;;4.23;;
33327;SDS011;19692;52.998;9.116;2023-05-21T05:11:42;5.83;;;4.20;;
33327;SDS011;19692;52.998;9.116;2023-05-21T05:14:08;6.43;;;4.40;;
33327;SDS011;19692;52.998;9.116;2023-05-21T05:16:34;5.67;;;4.17;;
33327;SDS011;19692;52.998;9.116;2023-05-21T05:19:00;6.70;;;4.70;;
33327;SDS011;19692;52.998;9.116;2023-05-21T05:21:26;6.30;;;4.67;;
33327;SDS011;19692;52.998;9.116;2023-05-21T05:23:51;6.57;;;4.80;;
33327;SDS011;19692;52.998;9.116;2023-05-21T05:26:17;5.77;;;4.63;;
33327;SDS011;19692;52.998;9.116;2023-05-21T05:28:43;6.23;;;4.57;;
33327;SDS011;19692;52.998;9.116;2023-05-21T05:31:10;5.93;;;5.00;;
33327;SDS011;19692;52.998;9.116;2023-05-21T05:33:36;7.97;;;4.77;;
33327;SDS011;19692;52.998;9.116;2023-05-21T05:36:02;7.83;;;5.30;;
33327;SDS011;19692;52.998;9.116;2023-05-21T05:38:27;9.20;;;5.10;;
33327;SDS011;19692;52.998;9.116;2023-05-21T05:40:53;7.23;;;4.87;;
33327;SDS011;19692;52.998;9.116;2023-05-21T05:43:19;8.00;;;4.90;;
33327;SDS011;19692;52.998;9.116;2023-05-21T05:45:45;6.67;;;5.27;;
33327;SDS011;19692;52.998;9.116;2023-05-21T05:48:11;5.63;;;4.70;;
33327;SDS011;19692;52.998;9.116;2023-05-21T05:50:37;6.20;;;4.90;;
33327;SDS011;19692;52.998;9.116;2023-05-21T05:53:02;6.73;;;4.50;;
33327;SDS011;19692;52.998;9.116;2023-05-21T05:55:28;5.77;;;4.87;;
33327;SDS011;19692;52.998;9.116;2023-05-21T05:57:54;5.93;;;4.67;;
33327;SDS011;19692;52.998;9.116;2023-05-21T06:00:20;7.30;;;4.50;;
33327;SDS011;19692;52.998;9.116;2023-05-21T06:02:46;5.87;;;4.63;;
33327;SDS011;19692;52.998;9.116;2023-05-21T06:05:12;7.03;;;5.53;;
33327;SDS011;19692;52.998;9.116;2023-05-21T06:07:38;6.53;;;4.83;;
33327;SDS011;19692;52.998;9.116;2023-05-21T06:10:05;8.27;;;5.13;;
33327;SDS011;19692;52.998;9.116;2023-05-21T06:12:32;9.27;;;5.13;;
33327;SDS011;19692;52.998;9.116;2023-05-21T06:14:58;7.50;;;5.40;;
33327;SDS011;19692;52.998;9.116;2023-05-21T06:17:23;5.57;;;5.07;;
33327;SDS011;19692;52.998;9.116;2023-05-21T06:19:49;8.00;;;5.10;;
33327;SDS011;19692;52.998;9.116;2023-05-21T06:22:16;9.23;;;5.70;;
33327;SDS011;19692;52.998;9.116;2023-05-21T06:24:42;7.77;;;5.33;;
33327;SDS011;19692;52.998;9.116;2023-05-21T06:27:07;9.47;;;5.93;;
33327;SDS011;19692;52.998;9.116;2023-05-21T06:29:33;6.70;;;5.23;;
33327;SDS011;19692;52.998;9.116;2023-05-21T06:31:59;8.27;;;7.13;;
33327;SDS011;19692;52.998;9.116;2023-05-21T06:34:25;8.43;;;6.10;;
33327;SDS011;19692;52.998;9.116;2023-05-21T06:36:52;9.73;;;6.57;;
33327;SDS011;19692;52.998;9.116;2023-05-21T06:39:18;7.73;;;5.97;;
33327;SDS011;19692;52.998;9.116;2023-05-21T06:41:44;7.90;;;6.07;;
33327;SDS011;19692;52.998;9.116;2023-05-21T06:44:10;6.83;;;5.93;;
33327;SDS011;19692;52.998;9.116;2023-05-21T06:46:35;9.13;;;6.33;;
33327;SDS011;19692;52.998;9.116;2023-05-21T06:49:01;8.23;;;6.80;;
33327;SDS011;19692;52.998;9.116;2023-05-21T06:51:27;10.03;;;7.00;;
33327;SDS011;19692;52.998;9.116;2023-05-21T06:53:53;9.77;;;7.47;;
33327;SDS011;19692;52.998;9.116;2023-05-21T06:56:18;10.10;;;6.97;;
33327;SDS011;19692;52.998;9.116;2023-05-21T06:58:45;11.10;;;7.07;;
33327;SDS011;19692;52.998;9.116;2023-05-21T07:01:11;9.97;;;7.20;;
33327;SDS011;19692;52.998;9.116;2023-05-21T07:03:37;8.07;;;7.20;;
33327;SDS011;19692;52.998;9.116;2023-05-21T07:06:03;10.97;;;7.70;;
33327;SDS011;19692;52.998;9.116;2023-05-21T07:08:28;9.10;;;7.63;;
33327;SDS011;19692;52.998;9.116;2023-05-21T07:10:54;8.27;;;6.83;;
33327;SDS011;19692;52.998;9.116;2023-05-21T07:13:20;9.33;;;7.13;;
33327;SDS011;19692;52.998;9.116;2023-05-21T07:15:46;11.07;;;8.23;;
33327;SDS011;19692;52.998;9.116;2023-05-21T07:18:11;12.00;;;8.53;;
33327;SDS011;19692;52.998;9.116;2023-05-21T07:20:37;10.57;;;8.03;;
33327;SDS011;19692;52.998;9.116;2023-05-21T07:23:03;9.53;;;8.53;;
33327;SDS011;19692;52.998;9.116;2023-05-21T07:25:29;11.80;;;8.50;;
33327;SDS011;19692;52.998;9.116;2023-05-21T07:27:55;10.40;;;8.50;;
33327;SDS011;19692;52.998;9.116;2023-05-21T07:30:20;9.60;;;8.57;;
33327;SDS011;19692;52.998;9.116;2023-05-21T07:32:46;9.40;;;8.40;;
33327;SDS011;19692;52.998;9.116;2023-05-21T07:35:12;10.07;;;8.27;;
33327;SDS011;19692;52.998;9.116;2023-05-21T07:37:38;10.97;;;9.23;;
33327;SDS011;19692;52.998;9.116;2023-05-21T07:40:04;12.27;;;8.53;;
33327;SDS011;19692;52.998;9.116;2023-05-21T07:42:31;11.47;;;9.20;;
33327;SDS011;19692;52.998;9.116;2023-05-21T07:44:57;10.57;;;9.20;;
33327;SDS011;19692;52.998;9.116;2023-05-21T07:47:23;11.53;;;8.80;;
33327;SDS011;19692;52.998;9.116;2023-05-21T07:49:49;11.27;;;8.73;;
33327;SDS011;19692;52.998;9.116;2023-05-21T07:52:15;11.63;;;9.73;;
33327;SDS011;19692;52.998;9.116;2023-05-21T07:54:41;13.00;;;9.60;;
33327;SDS011;19692;52.998;9.116;2023-05-21T07:57:06;10.03;;;9.00;;
33327;SDS011;19692;52.998;9.116;2023-05-21T07:59:32;11.07;;;9.67;;
33327;SDS011;19692;52.998;9.116;2023-05-21T08:01:58;10.47;;;9.07;;
33327;SDS011;19692;52.998;9.116;2023-05-21T08:04:24;12.70;;;9.87;;
33327;SDS011;19692;52.998;9.116;2023-05-21T08:06:50;11.23;;;10.10;;
33327;SDS011;19692;52.998;9.116;2023-05-21T08:09:16;10.97;;;9.40;;
33327;SDS011;19692;52.998;9.116;2023-05-21T08:11:43;12.77;;;9.87;;
33327;SDS011;19692;52.998;9.116;2023-05-21T08:14:10;11.57;;;9.53;;
33327;SDS011;19692;52.998;9.116;2023-05-21T08:16:35;11.63;;;9.17;;
33327;SDS011;19692;52.998;9.116;2023-05-21T08:19:01;12.83;;;9.53;;
33327;SDS011;19692;52.998;9.116;2023-05-21T08:21:27;11.10;;;9.90;;
33327;SDS011;19692;52.998;9.116;2023-05-21T08:23:53;13.03;;;9.90;;
33327;SDS011;19692;52.998;9.116;2023-05-21T08:26:19;10.50;;;9.33;;
33327;SDS011;19692;52.998;9.116;2023-05-21T08:28:45;11.13;;;10.03;;
33327;SDS011;19692;52.998;9.116;2023-05-21T08:31:11;11.07;;;9.70;;
33327;SDS011;19692;52.998;9.116;2023-05-21T08:33:37;11.20;;;10.10;;
33327;SDS011;19692;52.998;9.116;2023-05-21T08:36:04;11.10;;;9.33;;
33327;SDS011;19692;52.998;9.116;2023-05-21T08:38:31;11.83;;;10.43;;
33327;SDS011;19692;52.998;9.116;2023-05-21T08:40:57;12.00;;;9.97;;
33327;SDS011;19692;52.998;9.116;2023-05-21T08:43:27;11.27;;;10.20;;
33327;SDS011;19692;52.998;9.116;2023-05-21T08:45:54;12.17;;;10.97;;
33327;SDS011;19692;52.998;9.116;2023-05-21T08:48:21;11.40;;;10.20;;
33327;SDS011;19692;52.998;9.116;2023-05-21T08:50:51;12.30;;;10.67;;
33327;SDS011;19692;52.998;9.116;2023-05-21T08:53:19;11.13;;;10.03;;
33327;SDS011;19692;52.998;9.116;2023-05-21T08:55:49;11.77;;;10.43;;
33327;SDS011;19692;52.998;9.116;2023-05-21T08:58:16;12.43;;;10.37;;
33327;SDS011;19692;52.998;9.116;2023-05-21T09:00:43;12.77;;;10.50;;
33327;SDS011;19692;52.998;9.116;2023-05-21T09:03:09;11.90;;;10.70;;
33327;SDS011;19692;52.998;9.116;2023-05-21T09:05:38;10.37;;;9.30;;
33327;SDS011;19692;52.998;9.116;2023-05-21T09:08:18;17.63;;;15.93;;
33327;SDS011;19692;52.998;9.116;2023-05-21T09:10:49;11.77;;;10.40;;
33327;SDS011;19692;52.998;9.116;2023-05-21T09:13:16;12.07;;;10.37;;
33327;SDS011;19692;52.998;9.116;2023-05-21T09:15:44;12.67;;;9.80;;
33327;SDS011;19692;52.998;9.116;2023-05-21T09:18:11;13.10;;;9.90;;
33327;SDS011;19692;52.998;9.116;2023-05-21T09:20:40;11.37;;;10.17;;
33327;SDS011;19692;52.998;9.116;2023-05-21T09:23:06;11.87;;;10.63;;
33327;SDS011;19692;52.998;9.116;2023-05-21T09:25:40;13.57;;;11.27;;
33327;SDS011;19692;52.998;9.116;2023-05-21T09:28:13;12.47;;;11.17;;
33327;SDS011;19692;52.998;9.116;2023-05-21T09:30:44;11.00;;;9.87;;
33327;SDS011;19692;52.998;9.116;2023-05-21T09:33:26;12.33;;;11.03;;
33327;SDS011;19692;52.998;9.116;2023-05-21T09:35:56;14.47;;;10.33;;
33327;SDS011;19692;52.998;9.116;2023-05-21T09:38:22;12.33;;;10.83;;
33327;SDS011;19692;52.998;9.116;2023-05-21T09:40:49;12.43;;;11.13;;
33327;SDS011;19692;52.998;9.116;2023-05-21T09:43:15;12.47;;;10.50;;
33327;SDS011;19692;52.998;9.116;2023-05-21T09:45:51;13.73;;;10.80;;
33327;SDS011;19692;52.998;9.116;2023-05-21T09:48:35;11.97;;;10.23;;
33327;SDS011;19692;52.998;9.116;2023-05-21T09:53:43;13.07;;;11.00;;
33327;SDS011;19692;52.998;9.116;2023-05-21T09:56:12;12.03;;;10.20;;
33327;SDS011;19692;52.998;9.116;2023-05-21T09:58:38;12.53;;;10.73;;
33327;SDS011;19692;52.998;9.116;2023-05-21T10:01:05;11.57;;;10.40;;
33327;SDS011;19692;52.998;9.116;2023-05-21T10:03:32;13.90;;;10.43;;
33327;SDS011;19692;52.998;9.116;2023-05-21T10:06:03;11.60;;;10.40;;
33327;SDS011;19692;52.998;9.116;2023-05-21T10:08:32;12.60;;;9.93;;
33327;SDS011;19692;52.998;9.116;2023-05-21T10:11:04;12.80;;;10.23;;
33327;SDS011;19692;52.998;9.116;2023-05-21T10:13:30;11.60;;;10.10;;
33327;SDS011;19692;52.998;9.116;2023-05-21T10:16:00;11.27;;;10.13;;
33327;SDS011;19692;52.998;9.116;2023-05-21T10:18:27;11.07;;;9.97;;
33327;SDS011;19692;52.998;9.116;2023-05-21T10:20:54;12.27;;;11.17;;
33327;SDS011;19692;52.998;9.116;2023-05-21T10:23:21;11.10;;;10.03;;
33327;SDS011;19692;52.998;9.116;2023-05-21T10:25:48;13.73;;;12.33;;
33327;SDS011;19692;52.998;9.116;2023-05-21T10:28:15;12.03;;;10.67;;
33327;SDS011;19692;52.998;9.116;2023-05-21T10:30:42;12.53;;;11.23;;
33327;SDS011;19692;52.998;9.116;2023-05-21T10:33:08;11.00;;;9.90;;
33327;SDS011;19692;52.998;9.116;2023-05-21T10:35:37;12.83;;;11.53;;
33327;SDS011;19692;52.998;9.116;2023-05-21T10:38:05;13.13;;;10.80;;
33327;SDS011;19692;52.998;9.116;2023-05-21T10:40:33;12.27;;;11.13;;
33327;SDS011;19692;52.998;9.116;2023-05-21T10:46:26;13.17;;;10.53;;
33327;SDS011;19692;52.998;9.116;2023-05-21T10:49:25;13.40;;;10.37;;
33327;SDS011;19692;52.998;9.116;2023-05-21T10:52:10;12.23;;;10.67;;
33327;SDS011;19692;52.998;9.116;2023-05-21T11:00:34;12.13;;;10.90;;
33327;SDS011;19692;52.998;9.116;2023-05-21T11:03:00;11.83;;;10.60;;
33327;SDS011;19692;52.998;9.116;2023-05-21T11:05:37;11.80;;;10.80;;
33327;SDS011;19692;52.998;9.116;2023-05-21T11:08:22;11.43;;;10.37;;
33327;SDS011;19692;52.998;9.116;2023-05-21T11:10:54;13.27;;;11.33;;
33327;SDS011;19692;52.998;9.116;2023-05-21T11:13:22;11.80;;;10.70;;
33327;SDS011;19692;52.998;9.116;2023-05-21T11:21:13;12.50;;;11.30;;
33327;SDS011;19692;52.998;9.116;2023-05-21T11:23:51;12.30;;;11.03;;
33327;SDS011;19692;52.998;9.116;2023-05-21T11:26:26;12.87;;;11.07;;
33327;SDS011;19692;52.998;9.116;2023-05-21T11:29:11;12.67;;;11.50;;
33327;SDS011;19692;52.998;9.116;2023-05-21T11:31:37;13.10;;;11.73;;
33327;SDS011;19692;52.998;9.116;2023-05-21T11:34:19;12.93;;;11.73;;
33327;SDS011;19692;52.998;9.116;2023-05-21T11:36:52;12.00;;;10.50;;
33327;SDS011;19692;52.998;9.116;2023-05-21T11:39:44;12.33;;;11.10;;
33327;SDS011;19692;52.998;9.116;2023-05-21T11:42:12;13.53;;;12.30;;
33327;SDS011;19692;52.998;9.116;2023-05-21T11:44:51;13.33;;;11.70;;
33327;SDS011;19692;52.998;9.116;2023-05-21T11:47:17;12.60;;;11.40;;
33327;SDS011;19692;52.998;9.116;2023-05-21T11:49:44;12.90;;;11.20;;
33327;SDS011;19692;52.998;9.116;2023-05-21T11:52:10;12.80;;;11.50;;
33327;SDS011;19692;52.998;9.116;2023-05-21T11:54:42;12.57;;;11.43;;
33327;SDS011;19692;52.998;9.116;2023-05-21T11:57:12;13.07;;;11.80;;
33327;SDS011;19692;52.998;9.116;2023-05-21T11:59:43;12.20;;;11.07;;
33327;SDS011;19692;52.998;9.116;2023-05-21T12:02:13;14.80;;;11.60;;
33327;SDS011;19692;52.998;9.116;2023-05-21T12:04:40;12.63;;;11.53;;
33327;SDS011;19692;52.998;9.116;2023-05-21T12:07:06;13.73;;;12.50;;
33327;SDS011;19692;52.998;9.116;2023-05-21T12:09:40;13.87;;;12.17;;
33327;SDS011;19692;52.998;9.116;2023-05-21T12:12:12;13.17;;;11.97;;
33327;SDS011;19692;52.998;9.116;2023-05-21T12:14:47;13.00;;;11.70;;
33327;SDS011;19692;52.998;9.116;2023-05-21T12:17:18;12.70;;;11.60;;
33327;SDS011;19692;52.998;9.116;2023-05-21T12:19:50;12.53;;;11.43;;
33327;SDS011;19692;52.998;9.116;2023-05-21T12:22:18;13.97;;;12.43;;
33327;SDS011;19692;52.998;9.116;2023-05-21T12:24:45;13.30;;;12.10;;
33327;SDS011;19692;52.998;9.116;2023-05-21T12:27:12;14.03;;;12.73;;
33327;SDS011;19692;52.998;9.116;2023-05-21T12:29:44;14.33;;;13.13;;
33327;SDS011;19692;52.998;9.116;2023-05-21T12:32:16;13.70;;;12.07;;
33327;SDS011;19692;52.998;9.116;2023-05-21T12:35:00;13.33;;;12.17;;
33327;SDS011;19692;52.998;9.116;2023-05-21T12:37:27;13.73;;;12.47;;
33327;SDS011;19692;52.998;9.116;2023-05-21T12:39:59;12.53;;;11.33;;
33327;SDS011;19692;52.998;9.116;2023-05-21T12:42:33;13.37;;;12.10;;
33327;SDS011;19692;52.998;9.116;2023-05-21T12:45:07;13.73;;;12.53;;
33327;SDS011;19692;52.998;9.116;2023-05-21T12:47:34;13.07;;;11.63;;
33327;SDS011;19692;52.998;9.116;2023-05-21T12:50:00;16.17;;;12.60;;
33327;SDS011;19692;52.998;9.116;2023-05-21T12:52:28;13.43;;;12.30;;
33327;SDS011;19692;52.998;9.116;2023-05-21T12:54:55;13.70;;;12.50;;
33327;SDS011;19692;52.998;9.116;2023-05-21T12:57:22;13.93;;;12.73;;
33327;SDS011;19692;52.998;9.116;2023-05-21T13:00:01;13.37;;;12.03;;
33327;SDS011;19692;52.998;9.116;2023-05-21T13:02:31;13.03;;;11.93;;
33327;SDS011;19692;52.998;9.116;2023-05-21T13:05:04;13.70;;;12.37;;
33327;SDS011;19692;52.998;9.116;2023-05-21T13:07:32;12.33;;;11.23;;
33327;SDS011;19692;52.998;9.116;2023-05-21T13:10:02;13.23;;;11.97;;
33327;SDS011;19692;52.998;9.116;2023-05-21T13:12:30;13.33;;;12.13;;
33327;SDS011;19692;52.998;9.116;2023-05-21T13:14:57;13.67;;;12.40;;
33327;SDS011;19692;52.998;9.116;2023-05-21T13:17:25;13.20;;;12.00;;
33327;SDS011;19692;52.998;9.116;2023-05-21T13:20:05;13.13;;;12.03;;
33327;SDS011;19692;52.998;9.116;2023-05-21T13:22:36;13.00;;;11.90;;
33327;SDS011;19692;52.998;9.116;2023-05-21T13:25:06;14.07;;;12.77;;
33327;SDS011;19692;52.998;9.116;2023-05-21T13:27:33;12.93;;;11.73;;
33327;SDS011;19692;52.998;9.116;2023-05-21T13:29:59;14.03;;;12.77;;
33327;SDS011;19692;52.998;9.116;2023-05-21T13:32:25;13.93;;;12.57;;
33327;SDS011;19692;52.998;9.116;2023-05-21T13:34:51;13.60;;;12.37;;
33327;SDS011;19692;52.998;9.116;2023-05-21T13:37:17;12.70;;;11.60;;
33327;SDS011;19692;52.998;9.116;2023-05-21T13:39:44;12.23;;;11.10;;
33327;SDS011;19692;52.998;9.116;2023-05-21T13:42:11;13.87;;;11.57;;
33327;SDS011;19692;52.998;9.116;2023-05-21T13:44:36;11.93;;;10.83;;
33327;SDS011;19692;52.998;9.116;2023-05-21T13:47:02;13.53;;;12.17;;
33327;SDS011;19692;52.998;9.116;2023-05-21T13:49:32;12.60;;;11.40;;
33327;SDS011;19692;52.998;9.116;2023-05-21T13:51:58;11.93;;;10.93;;
33327;SDS011;19692;52.998;9.116;2023-05-21T13:54:25;13.07;;;11.87;;
33327;SDS011;19692;52.998;9.116;2023-05-21T13:56:52;12.50;;;11.40;;
33327;SDS011;19692;52.998;9.116;2023-05-21T13:59:18;12.10;;;11.00;;
33327;SDS011;19692;52.998;9.116;2023-05-21T14:01:44;11.43;;;10.43;;
33327;SDS011;19692;52.998;9.116;2023-05-21T14:04:11;12.33;;;11.03;;
33327;SDS011;19692;52.998;9.116;2023-05-21T14:06:37;12.60;;;11.47;;
33327;SDS011;19692;52.998;9.116;2023-05-21T14:09:05;12.00;;;10.90;;
33327;SDS011;19692;52.998;9.116;2023-05-21T14:11:31;12.17;;;11.03;;
33327;SDS011;19692;52.998;9.116;2023-05-21T14:13:57;11.83;;;10.63;;
33327;SDS011;19692;52.998;9.116;2023-05-21T14:16:23;11.37;;;10.37;;
33327;SDS011;19692;52.998;9.116;2023-05-21T14:18:51;11.30;;;10.30;;
33327;SDS011;19692;52.998;9.116;2023-05-21T14:21:18;12.43;;;11.17;;
33327;SDS011;19692;52.998;9.116;2023-05-21T14:23:44;12.40;;;11.20;;
33327;SDS011;19692;52.998;9.116;2023-05-21T14:26:11;12.27;;;11.13;;
33327;SDS011;19692;52.998;9.116;2023-05-21T14:28:36;14.70;;;10.90;;
33327;SDS011;19692;52.998;9.116;2023-05-21T14:31:02;12.50;;;11.33;;
33327;SDS011;19692;52.998;9.116;2023-05-21T14:33:29;12.93;;;10.87;;
33327;SDS011;19692;52.998;9.116;2023-05-21T14:35:56;11.00;;;10.00;;
33327;SDS011;19692;52.998;9.116;2023-05-21T14:38:21;11.47;;;10.57;;
33327;SDS011;19692;52.998;9.116;2023-05-21T14:40:47;11.40;;;10.23;;
33327;SDS011;19692;52.998;9.116;2023-05-21T14:43:13;12.33;;;11.23;;
33327;SDS011;19692;52.998;9.116;2023-05-21T14:45:38;11.70;;;10.60;;
33327;SDS011;19692;52.998;9.116;2023-05-21T14:48:04;12.10;;;10.73;;
33327;SDS011;19692;52.998;9.116;2023-05-21T14:50:35;12.80;;;11.73;;
33327;SDS011;19692;52.998;9.116;2023-05-21T14:53:02;13.23;;;11.83;;
33327;SDS011;19692;52.998;9.116;2023-05-21T14:55:35;11.87;;;10.77;;
33327;SDS011;19692;52.998;9.116;2023-05-21T14:58:02;13.13;;;12.03;;
33327;SDS011;19692;52.998;9.116;2023-05-21T15:00:30;12.80;;;11.53;;